createdAt,value
2019-01-22T00:02:16.341Z,100745
2019-01-22T00:07:39.125Z,100731
2019-01-22T00:13:01.833Z,100724
2019-01-22T00:18:24.687Z,100721
2019-01-22T00:23:47.409Z,100711
2019-01-22T00:29:10.125Z,100702
2019-01-22T00:34:32.821Z,100693
2019-01-22T00:39:55.607Z,100687
2019-01-22T00:45:20.122Z,100680
2019-01-22T00:50:42.879Z,100681
2019-01-22T00:56:05.643Z,100684
2019-01-22T01:01:28.382Z,100676
2019-01-22T01:06:51.071Z,100664
2019-01-22T01:12:13.896Z,100659
2019-01-22T01:17:36.593Z,100648
2019-01-22T01:23:00.198Z,100646
2019-01-22T01:28:23.521Z,100639
2019-01-22T01:33:46.212Z,100632
2019-01-22T01:39:08.881Z,100617
2019-01-22T01:44:31.565Z,100607
2019-01-22T01:49:54.276Z,100598
2019-01-22T01:55:16.978Z,100587
2019-01-22T02:00:39.724Z,100580
2019-01-22T02:06:02.388Z,100578
2019-01-22T02:11:25.168Z,100569
2019-01-22T02:16:47.957Z,100555
2019-01-22T02:22:10.687Z,100553
2019-01-22T02:27:33.502Z,100546
2019-01-22T02:32:56.173Z,100532
2019-01-22T02:38:18.901Z,100517
2019-01-22T02:43:42.546Z,100501
2019-01-22T02:49:07.160Z,100486
2019-01-22T02:54:29.865Z,100477
2019-01-22T02:59:52.569Z,100468
2019-01-22T03:05:15.308Z,100456
2019-01-22T03:10:38.016Z,100448
2019-01-22T03:16:00.756Z,100444
2019-01-22T03:21:23.843Z,100435
2019-01-22T03:26:46.524Z,100439
2019-01-22T03:32:09.255Z,100435
2019-01-22T03:37:31.963Z,100422
2019-01-22T03:42:54.814Z,100413
2019-01-22T03:48:17.477Z,100406
2019-01-22T03:53:40.278Z,100408
2019-01-22T03:59:02.927Z,100403
2019-01-22T04:04:25.665Z,100392
2019-01-22T04:09:49.020Z,100384
2019-01-22T04:15:12.554Z,100375
2019-01-22T04:20:35.357Z,100362
2019-01-22T04:25:58.167Z,100361
2019-01-22T04:31:20.927Z,100345
2019-01-22T04:36:43.606Z,100338
2019-01-22T04:42:06.345Z,100318
2019-01-22T04:47:29.034Z,100297
2019-01-22T04:52:51.949Z,100291
2019-01-22T04:58:15.511Z,100282
2019-01-22T05:03:39.158Z,100277
2019-01-22T05:09:01.853Z,100272
2019-01-22T05:14:24.576Z,100266
2019-01-22T05:19:47.358Z,100260
2019-01-22T05:25:10.065Z,100260
2019-01-22T05:30:32.774Z,100254
2019-01-22T05:35:55.548Z,100247
2019-01-22T05:41:18.258Z,100233
2019-01-22T05:46:40.926Z,100229
2019-01-22T05:52:03.600Z,100229
2019-01-22T05:57:26.315Z,100229
2019-01-22T06:02:49.149Z,100225
2019-01-22T06:08:11.798Z,100215
2019-01-22T06:13:34.481Z,100209
2019-01-22T06:18:57.268Z,100201
2019-01-22T06:24:20.022Z,100196
2019-01-22T06:29:42.681Z,100186
2019-01-22T06:35:05.635Z,100183
2019-01-22T06:40:28.517Z,100170
2019-01-22T06:45:51.860Z,100161
2019-01-22T06:51:14.914Z,100151
2019-01-22T06:56:38.212Z,100147
2019-01-22T07:02:01.217Z,100142
2019-01-22T07:07:24.300Z,100132
2019-01-22T07:12:47.322Z,100124
2019-01-22T07:18:10.265Z,100118
2019-01-22T07:23:33.047Z,100108
2019-01-22T07:28:56.613Z,100105
2019-01-22T07:34:19.555Z,100104
2019-01-22T07:39:43.677Z,100093
2019-01-22T07:45:06.704Z,100087
2019-01-22T07:50:29.751Z,100081
2019-01-22T07:55:52.729Z,100069
2019-01-22T08:01:15.785Z,100064
2019-01-22T08:06:38.754Z,100052
2019-01-22T08:12:01.810Z,100044
2019-01-22T08:17:24.770Z,100037
2019-01-22T08:22:47.760Z,100036
2019-01-22T08:28:10.855Z,100035
2019-01-22T08:33:33.718Z,100029
2019-01-22T08:38:56.592Z,100021
2019-01-22T08:44:19.624Z,100022
2019-01-22T08:49:43.782Z,100010
2019-01-22T08:55:08.145Z,100013
2019-01-22T09:00:30.672Z,100003
2019-01-22T09:05:53.337Z,99993
2019-01-22T09:11:16.253Z,99990
2019-01-22T09:16:40.088Z,99983
2019-01-22T09:22:02.766Z,99970
2019-01-22T09:27:26.399Z,99958
2019-01-22T09:32:49.706Z,99937
2019-01-22T09:38:12.910Z,99932
2019-01-22T09:43:35.721Z,99931
2019-01-22T09:48:58.380Z,99914
2019-01-22T09:54:21.638Z,99905
2019-01-22T09:59:44.313Z,99902
2019-01-22T10:05:07.007Z,99895
2019-01-22T10:10:29.715Z,99885
2019-01-22T10:15:52.464Z,99877
2019-01-22T10:21:15.184Z,99872
2019-01-22T10:26:39.795Z,99861
2019-01-22T10:32:03.966Z,99848
2019-01-22T10:37:26.934Z,99834
2019-01-22T10:42:51.228Z,99825
2019-01-22T10:48:16.142Z,99812
2019-01-22T10:53:39.607Z,99799
2019-01-22T10:59:02.971Z,99788
2019-01-22T11:04:25.868Z,99777
2019-01-22T11:09:48.661Z,99768
2019-01-22T11:15:11.470Z,99756
2019-01-22T11:20:36.119Z,99745
2019-01-22T11:25:58.986Z,99733
2019-01-22T11:31:21.709Z,99720
2019-01-22T11:36:44.643Z,99712
2019-01-22T11:42:08.502Z,99705
2019-01-22T11:47:31.226Z,99694
2019-01-22T11:52:54.340Z,99681
2019-01-22T11:58:17.221Z,99676
2019-01-22T12:03:40.177Z,99665
2019-01-22T12:09:03.185Z,99653
2019-01-22T12:14:26.226Z,99645
2019-01-22T12:19:49.346Z,99640
2019-01-22T12:25:12.193Z,99632
2019-01-22T12:30:34.959Z,99627
2019-01-22T12:35:57.681Z,99617
2019-01-22T12:41:20.344Z,99608
2019-01-22T12:46:44.278Z,99599
2019-01-22T12:52:07.425Z,99589
2019-01-22T12:57:30.603Z,99575
2019-01-22T13:02:54.605Z,99562
2019-01-22T13:08:17.598Z,99553
2019-01-22T13:13:40.457Z,99540
2019-01-22T13:19:03.378Z,99528
2019-01-22T13:24:26.198Z,99519
2019-01-22T13:29:49.438Z,99505
2019-01-22T13:35:12.323Z,99497
2019-01-22T13:40:35.354Z,99496
2019-01-22T13:45:58.180Z,99487
2019-01-22T13:51:21.089Z,99484
2019-01-22T13:56:43.826Z,99480
2019-01-22T14:02:07.157Z,99471
2019-01-22T14:07:29.862Z,99455
2019-01-22T14:12:53.437Z,99455
2019-01-22T14:18:16.102Z,99448
2019-01-22T14:23:38.819Z,99447
2019-01-22T14:29:02.374Z,99447
2019-01-22T14:34:26.574Z,99448
2019-01-22T14:39:49.372Z,99446
2019-01-22T14:45:13.440Z,99454
2019-01-22T14:50:34.684Z,99456
2019-01-22T14:55:57.541Z,99454
2019-01-22T15:01:20.493Z,99454
2019-01-22T15:06:43.286Z,99449
2019-01-22T15:12:06.020Z,99439
2019-01-22T15:17:28.873Z,99427
2019-01-22T15:22:51.766Z,99428
2019-01-22T15:28:14.757Z,99423
2019-01-22T15:33:37.792Z,99423
2019-01-22T15:39:00.533Z,99415
2019-01-22T15:44:23.662Z,99412
2019-01-22T15:49:46.657Z,99409
2019-01-22T15:55:09.654Z,99403
2019-01-22T16:00:32.699Z,99398
2019-01-22T16:05:55.675Z,99395
2019-01-22T16:11:18.764Z,99394
2019-01-22T16:16:41.848Z,99393
2019-01-22T16:22:04.989Z,99388
2019-01-22T16:27:27.929Z,99384
2019-01-22T16:32:53.071Z,99385
2019-01-22T16:38:16.123Z,99386
2019-01-22T16:43:39.070Z,99378
2019-01-22T16:49:02.240Z,99377
2019-01-22T16:54:25.473Z,99380
2019-01-22T16:59:48.357Z,99379
2019-01-22T17:05:11.352Z,99379
2019-01-22T17:10:34.627Z,99384
2019-01-22T17:15:57.572Z,99385
2019-01-22T17:21:20.428Z,99378
2019-01-22T17:26:43.140Z,99374
2019-01-22T17:32:06.007Z,99373
2019-01-22T17:37:30.126Z,99372
2019-01-22T17:42:53.261Z,99372
2019-01-22T17:48:16.391Z,99366
2019-01-22T17:53:39.373Z,99363
2019-01-22T17:59:02.444Z,99365
2019-01-22T18:04:29.237Z,99357
2019-01-22T18:09:52.419Z,99351
2019-01-22T18:15:17.558Z,99351
2019-01-22T18:20:40.669Z,99343
2019-01-22T18:26:03.797Z,99348
2019-01-22T18:31:28.378Z,99331
2019-01-22T18:36:51.348Z,99330
2019-01-22T18:42:14.031Z,99338
2019-01-22T18:47:36.698Z,99331
2019-01-22T18:53:00.032Z,99330
2019-01-22T18:58:22.845Z,99326
2019-01-22T19:03:46.105Z,99326
2019-01-22T19:09:09.094Z,99325
2019-01-22T19:14:32.060Z,99325
2019-01-22T19:19:54.955Z,99332
2019-01-22T19:25:17.985Z,99328
2019-01-22T19:30:40.892Z,99327
2019-01-22T19:36:04.003Z,99325
2019-01-22T19:41:27.109Z,99327
2019-01-22T19:46:50.119Z,99323
2019-01-22T19:52:13.160Z,99330
2019-01-22T19:57:40.900Z,99319
2019-01-22T20:02:59.134Z,99322
2019-01-22T20:08:22.012Z,99319
2019-01-22T20:13:44.857Z,99303
2019-01-22T20:19:07.569Z,99305
2019-01-22T20:24:30.259Z,99305
2019-01-22T20:29:53.008Z,99310
2019-01-22T20:35:15.774Z,99306
2019-01-22T20:40:38.402Z,99302
2019-01-22T20:46:03.091Z,99299
2019-01-22T20:51:25.829Z,99297
2019-01-22T20:56:48.709Z,99299
2019-01-22T21:02:11.704Z,99297
2019-01-22T21:07:34.794Z,99299
2019-01-22T21:12:57.915Z,99289
2019-01-22T21:18:20.726Z,99287
2019-01-22T21:23:43.583Z,99290
2019-01-22T21:29:06.535Z,99279
2019-01-22T21:34:28.350Z,99277
2019-01-22T21:39:51.191Z,99272
2019-01-22T21:45:14.139Z,99270
2019-01-22T21:50:36.942Z,99266
2019-01-22T21:55:59.771Z,99267
2019-01-22T22:01:22.504Z,99255
2019-01-22T22:06:45.222Z,99258
2019-01-22T22:12:08.837Z,99250
2019-01-22T22:17:30.730Z,99241
2019-01-22T22:22:53.439Z,99234
2019-01-22T22:28:16.151Z,99233
2019-01-22T22:33:39.152Z,99229
2019-01-22T22:39:01.816Z,99230
2019-01-22T22:44:24.518Z,99221
2019-01-22T22:49:47.270Z,99219
2019-01-22T22:55:09.949Z,99211
2019-01-22T23:00:32.697Z,99216
2019-01-22T23:05:55.451Z,99213
2019-01-22T23:11:18.823Z,99208
2019-01-22T23:16:41.531Z,99207
2019-01-22T23:22:04.295Z,99208
2019-01-22T23:27:27.025Z,99204
2019-01-22T23:32:49.777Z,99206
2019-01-22T23:38:12.590Z,99195
2019-01-22T23:43:35.260Z,99190
2019-01-22T23:48:58.262Z,99191
2019-01-22T23:54:21.114Z,99180
2019-01-22T23:59:43.891Z,99180
